Terminal Aerodrome Forecast
Issued by NWS Wilmington, NC

Home | Current Version | Previous Version | Text Only | Print | Product List | Glossary On
Versions: 1 2 3 4 5 6 7 8 9 10 11 12
424
FTUS42 KILM 220540
TAFMYR
TAF
KMYR 220540Z 2206/2306 VRB03KT P6SM FEW030 BKN060 BKN250
     FM220900 07006KT P6SM SCT050 BKN150
     FM221500 12011KT P6SM BKN250
     FM230000 10006KT P6SM OVC150
      AMD LTD TO CLD VIS AND WIND TIL 221100=

USA.gov is the U.S. government's official web portal to all federal, state and local government web resources and services.